Time;durP1;ratioP1;P1;durP2;ratioP2;P2;SDS_P1;SDS_P2;PMS_P1;PMS_P2;Temp;Humidity;BMP_temperature;BMP_pressure;BME280_temperature;BME280_humidity;BME280_pressure;Samples;Min_cycle;Max_cycle;Signal;HPM_P1;HPM_P2
2022/11/21 00:01:23;;;;;;;19.48;10.35;;;;;;;0.61;100.00;99574.00;6495853;22;20017;-72
2022/11/21 00:03:53;;;;;;;18.48;9.43;;;;;;;0.59;100.00;99574.00;6496012;22;20004;-72
2022/11/21 00:06:23;;;;;;;17.27;9.68;;;;;;;0.77;100.00;99578.94;6495348;22;20079;-72
2022/11/21 00:08:54;;;;;;;18.08;10.27;;;;;;;0.64;100.00;99573.97;6458349;22;20319;-72
2022/11/21 00:11:25;;;;;;;17.38;10.10;;;;;;;0.82;100.00;99584.00;6458592;22;20004;-72
2022/11/21 00:13:55;;;;;;;17.52;9.68;;;;;;;0.93;100.00;99585.56;6496802;22;20011;-72
2022/11/21 00:16:25;;;;;;;16.23;9.02;;;;;;;0.71;100.00;99580.75;6496374;22;19999;-72
2022/11/21 00:18:56;;;;;;;19.13;10.38;;;;;;;0.46;100.00;99582.75;6496756;22;20003;-72
2022/11/21 00:21:26;;;;;;;17.83;9.82;;;;;;;0.50;100.00;99581.84;6495108;22;20012;-71
2022/11/21 00:23:57;;;;;;;20.10;10.23;;;;;;;0.51;100.00;99573.25;6496866;22;20114;-72
2022/11/21 00:26:27;;;;;;;18.95;10.20;;;;;;;0.44;100.00;99563.94;6495752;22;20023;-72
2022/11/21 00:28:57;;;;;;;20.25;10.63;;;;;;;0.34;100.00;99558.88;6496967;22;20000;-72
2022/11/21 00:31:28;;;;;;;21.15;10.93;;;;;;;0.41;100.00;99561.38;6496024;22;20007;-72
2022/11/21 00:33:58;;;;;;;21.05;10.93;;;;;;;0.36;100.00;99558.00;6497021;22;20488;-72
2022/11/21 00:36:28;;;;;;;18.60;10.50;;;;;;;0.28;100.00;99558.97;6496562;22;20023;-72
2022/11/21 00:38:58;;;;;;;19.90;11.07;;;;;;;0.18;100.00;99552.25;6495581;22;20003;-72
2022/11/21 00:41:29;;;;;;;20.58;10.57;;;;;;;0.23;100.00;99555.59;6496175;22;20006;-71
2022/11/21 00:43:59;;;;;;;23.15;12.02;;;;;;;0.15;100.00;99553.13;6496802;22;20033;-72
2022/11/21 00:46:29;;;;;;;19.08;10.93;;;;;;;0.20;100.00;99546.22;6496086;22;20392;-72
2022/11/21 00:48:59;;;;;;;20.08;11.10;;;;;;;0.25;100.00;99547.00;6496355;22;20025;-72
2022/11/21 00:51:30;;;;;;;24.27;11.73;;;;;;;0.31;100.00;99541.81;6495849;22;20513;-72
2022/11/21 00:54:00;;;;;;;22.27;11.57;;;;;;;0.44;100.00;99535.69;6496505;22;20003;-72
2022/11/21 00:56:30;;;;;;;25.75;12.25;;;;;;;0.33;100.00;99534.94;6496187;22;20003;-72
2022/11/21 00:59:01;;;;;;;23.92;12.45;;;;;;;0.21;100.00;99531.66;6496518;22;20015;-72
2022/11/21 01:01:31;;;;;;;27.60;13.57;;;;;;;0.32;100.00;99525.53;6496400;22;20003;-72
2022/11/21 01:04:01;;;;;;;28.17;14.65;;;;;;;0.32;100.00;99529.81;6458486;22;20324;-72
2022/11/21 01:06:32;;;;;;;30.08;15.13;;;;;;;0.33;100.00;99522.09;6496271;22;20005;-72
2022/11/21 01:09:02;;;;;;;29.90;14.77;;;;;;;0.34;100.00;99518.66;6495442;22;20018;-72
2022/11/21 01:11:33;;;;;;;27.90;14.18;;;;;;;0.41;100.00;99520.25;6495763;22;20099;-72
2022/11/21 01:14:03;;;;;;;27.60;13.45;;;;;;;0.32;100.00;99530.66;6458476;22;20402;-72
2022/11/21 01:16:33;;;;;;;21.83;12.27;;;;;;;0.24;100.00;99527.31;6495724;22;20080;-72
2022/11/21 01:19:04;;;;;;;22.27;11.98;;;;;;;0.22;100.00;99523.91;6495981;22;20000;-70
2022/11/21 01:21:34;;;;;;;21.90;12.30;;;;;;;0.16;100.00;99524.00;6495147;22;20004;-72
2022/11/21 01:24:05;;;;;;;21.88;12.35;;;;;;;0.11;100.00;99530.06;6484635;22;20058;-72
2022/11/21 01:26:36;;;;;;;22.35;12.07;;;;;;;0.15;100.00;99518.88;6495816;22;20057;-72
2022/11/21 01:29:07;;;;;;;21.30;12.30;;;;;;;0.09;100.00;99514.69;6458332;22;20283;-71
2022/11/21 01:31:38;;;;;;;21.20;11.93;;;;;;;0.43;100.00;99507.41;6496329;22;20494;-72
2022/11/21 01:34:08;;;;;;;21.15;11.68;;;;;;;0.52;100.00;99508.16;6495818;22;20000;-72
2022/11/21 01:36:38;;;;;;;19.75;11.65;;;;;;;0.33;100.00;99506.69;6495070;22;20141;-71
2022/11/21 01:39:09;;;;;;;20.83;11.80;;;;;;;0.29;100.00;99510.16;6495802;22;20312;-71
2022/11/21 01:41:43;;;;;;;24.20;11.98;;;;;;;0.32;100.00;99507.56;6495794;22;20013;-72
2022/11/21 01:44:25;;;;;;;22.50;12.50;;;;;;;0.43;100.00;99515.13;6495826;22;20058;-72
2022/11/21 01:46:55;;;;;;;20.80;12.20;;;;;;;0.29;100.00;99510.16;6495810;22;20006;-72
2022/11/21 01:49:29;;;;;;;21.27;11.90;;;;;;;0.48;100.00;99509.06;6494796;22;20331;-72
2022/11/21 01:52:10;;;;;;;19.95;11.75;;;;;;;0.42;100.00;99514.25;6485836;22;20452;-72
2022/11/21 01:54:54;;;;;;;22.02;12.48;;;;;;;0.30;100.00;99527.28;6495745;22;20026;-72
2022/11/21 01:57:47;;;;;;;27.85;13.45;;;;;;;0.28;100.00;99523.88;6495528;22;20461;-71
2022/11/21 02:00:23;;;;;;;34.83;15.95;;;;;;;0.48;100.00;99518.47;6490070;22;20078;-72
2022/11/21 02:03:02;;;;;;;28.65;14.38;;;;;;;0.35;100.00;99515.22;6493965;22;20008;-72
2022/11/21 02:05:34;;;;;;;23.98;12.75;;;;;;;0.32;100.00;99515.25;6495048;22;20053;-72
2022/11/21 02:08:12;;;;;;;25.73;14.20;;;;;;;0.24;100.00;99511.91;6494973;22;20075;-72
2022/11/21 02:10:52;;;;;;;25.50;13.95;;;;;;;0.23;100.00;99504.25;6494095;22;20023;-72
2022/11/21 02:13:22;;;;;;;25.33;14.23;;;;;;;0.18;100.00;99501.72;6495183;22;20270;-72
2022/11/21 02:15:53;;;;;;;25.80;13.82;;;;;;;0.29;100.00;99499.03;6494723;22;20000;-72
2022/11/21 02:18:24;;;;;;;25.13;13.90;;;;;;;0.47;100.00;99501.38;6457616;22;20008;-72
2022/11/21 02:21:05;;;;;;;24.00;13.10;;;;;;;0.68;100.00;99504.50;6494244;22;20445;-72
2022/11/21 02:23:40;;;;;;;21.17;12.30;;;;;;;0.70;100.00;99499.38;6494333;22;20011;-72
2022/11/21 02:26:11;;;;;;;20.17;11.63;;;;;;;0.42;100.00;99500.59;6484136;22;20000;-72
2022/11/21 02:28:41;;;;;;;21.17;12.00;;;;;;;0.63;100.00;99501.16;6495199;22;20008;-72
2022/11/21 02:31:12;;;;;;;22.42;12.75;;;;;;;0.37;100.00;99507.50;6496861;22;20004;-73
2022/11/21 02:33:42;;;;;;;20.27;11.98;;;;;;;0.35;100.00;99511.81;6501158;22;20004;-73
2022/11/21 02:36:37;;;;;;;20.88;12.10;;;;;;;0.44;100.00;99514.25;6463406;22;20023;-72
2022/11/21 02:39:21;;;;;;;22.05;12.40;;;;;;;0.39;100.00;99511.72;6500996;22;20007;-73
2022/11/21 02:42:05;;;;;;;21.90;12.10;;;;;;;0.61;100.00;99515.75;6501400;22;20000;-72
2022/11/21 02:45:14;;;;;;;24.00;12.85;;;;;;;0.68;100.00;99530.22;6501358;22;20074;-72
2022/11/21 02:47:49;;;;;;;20.85;11.68;;;;;;;0.68;100.00;99530.22;6464675;22;20014;-72
2022/11/21 02:50:25;;;;;;;21.67;12.43;;;;;;;0.56;100.00;99525.22;6501066;22;20081;-73
2022/11/21 02:52:56;;;;;;;24.10;12.80;;;;;;;0.74;100.00;99530.13;6502895;22;19999;-72
2022/11/21 02:55:26;;;;;;;22.63;12.43;;;;;;;0.70;100.00;99528.47;6502903;22;19996;-72
2022/11/21 02:57:57;;;;;;;20.48;11.60;;;;;;;0.57;100.00;99521.78;6465325;22;20470;-73
2022/11/21 03:00:27;;;;;;;21.40;11.85;;;;;;;0.46;100.00;99513.38;6503430;22;20341;-72
2022/11/21 03:02:58;;;;;;;24.55;12.65;;;;;;;0.24;100.00;99516.22;6503141;22;19999;-72
2022/11/21 03:05:29;;;;;;;23.17;12.15;;;;;;;0.34;100.00;99513.50;6503228;22;20004;-72
2022/11/21 03:07:59;;;;;;;21.30;12.20;;;;;;;0.51;100.00;99515.88;6465637;22;20334;-72
2022/11/21 03:10:30;;;;;;;22.52;12.45;;;;;;;0.27;100.00;99519.59;6503023;22;20014;-72
2022/11/21 03:13:00;;;;;;;22.10;11.60;;;;;;;0.33;100.00;99537.50;6503018;22;19999;-73
2022/11/21 03:15:32;;;;;;;21.88;11.75;;;;;;;0.17;100.00;99535.97;6464969;22;20430;-72
2022/11/21 03:18:03;;;;;;;21.92;12.00;;;;;;;0.14;100.00;99541.16;6465016;22;20058;-72
2022/11/21 03:20:34;;;;;;;22.95;11.95;;;;;;;0.15;100.00;99547.13;6502623;22;20008;-73
2022/11/21 03:23:04;;;;;;;22.38;11.77;;;;;;;0.25;100.00;99541.88;6501759;22;19999;-72
2022/11/21 03:25:34;;;;;;;19.75;11.57;;;;;;;0.18;100.00;99536.84;6502189;22;20033;-72
2022/11/21 03:28:04;;;;;;;24.08;12.60;;;;;;;0.00;100.00;99532.72;6502192;22;20000;-72
2022/11/21 03:30:35;;;;;;;22.10;12.02;;;;;;;0.05;100.00;99537.84;6502056;22;20265;-73
2022/11/21 03:33:05;;;;;;;24.63;12.90;;;;;;;0.15;100.00;99552.25;6502454;22;20090;-72
2022/11/21 03:35:35;;;;;;;27.60;14.70;;;;;;;0.18;100.00;99542.81;6502329;22;20506;-72
2022/11/21 03:38:06;;;;;;;25.50;14.38;;;;;;;0.06;100.00;99550.63;6492107;22;20007;-72
2022/11/21 03:40:36;;;;;;;24.05;14.35;;;;;;;0.28;100.00;99558.97;6491794;22;20430;-72
2022/11/21 03:43:07;;;;;;;44.03;20.50;;;;;;;0.18;100.00;99559.97;6502462;22;20258;-72
2022/11/21 03:45:37;;;;;;;24.38;12.82;;;;;;;0.21;100.00;99565.06;6464238;22;20458;-73
2022/11/21 03:48:07;;;;;;;21.90;11.55;;;;;;;0.38;100.00;99566.56;6501564;22;20003;-72
2022/11/21 03:50:37;;;;;;;20.17;11.48;;;;;;;0.41;100.00;99575.97;6502132;22;20003;-73
2022/11/21 03:53:08;;;;;;;26.75;12.48;;;;;;;0.28;100.00;99575.25;6502624;22;20000;-73
2022/11/21 03:55:38;;;;;;;22.95;12.75;;;;;;;0.37;100.00;99580.28;6502150;22;20335;-73
2022/11/21 03:58:08;;;;;;;21.63;11.93;;;;;;;0.41;100.00;99581.94;6502496;22;19999;-72
2022/11/21 04:00:39;;;;;;;25.05;12.43;;;;;;;0.40;100.00;99580.22;6501971;22;20004;-73
2022/11/21 04:03:09;;;;;;;27.35;14.23;;;;;;;0.38;100.00;99576.00;6464023;22;20431;-73
2022/11/21 04:05:39;;;;;;;24.77;12.88;;;;;;;0.42;100.00;99583.63;6502087;22;20007;-73
2022/11/21 04:08:09;;;;;;;23.65;12.52;;;;;;;0.61;100.00;99580.00;6501984;22;20143;-71
2022/11/21 04:10:46;;;;;;;24.10;12.77;;;;;;;0.61;100.00;99581.72;6491458;22;20000;-73
2022/11/21 04:13:17;;;;;;;25.35;13.63;;;;;;;0.64;100.00;99577.41;6501965;22;20031;-73
2022/11/21 04:15:47;;;;;;;21.52;12.10;;;;;;;0.57;100.00;99580.06;6501940;22;20042;-71
2022/11/21 04:18:18;;;;;;;24.90;12.90;;;;;;;0.66;100.00;99583.38;6501517;22;20011;-73
2022/11/21 04:20:48;;;;;;;21.77;12.25;;;;;;;0.62;100.00;99581.72;6501177;22;20082;-71
2022/11/21 04:23:18;;;;;;;21.63;12.07;;;;;;;0.57;100.00;99585.19;6500670;22;20000;-73
2022/11/21 04:25:49;;;;;;;24.20;12.27;;;;;;;0.59;100.00;99586.03;6501374;22;20003;-73
2022/11/21 04:28:20;;;;;;;27.75;14.23;;;;;;;0.64;100.00;99579.09;6463608;22;20003;-73
2022/11/21 04:30:50;;;;;;;24.38;13.55;;;;;;;0.38;100.00;99581.97;6501629;22;20395;-73
2022/11/21 04:33:21;;;;;;;23.70;12.82;;;;;;;0.39;100.00;99588.81;6464063;22;20375;-73
2022/11/21 04:35:51;;;;;;;22.73;12.35;;;;;;;0.52;100.00;99590.38;6501887;22;20002;-72
2022/11/21 04:38:21;;;;;;;24.08;11.85;;;;;;;0.64;100.00;99594.50;6501680;22;20003;-72
2022/11/21 04:40:52;;;;;;;21.73;12.18;;;;;;;0.61;100.00;99594.56;6491474;22;19995;-72
2022/11/21 04:43:22;;;;;;;25.35;12.85;;;;;;;0.67;100.00;99605.63;6502401;22;20242;-72
2022/11/21 04:45:52;;;;;;;23.38;12.68;;;;;;;0.64;100.00;99605.66;6501693;22;20061;-72
2022/11/21 04:48:23;;;;;;;26.30;12.75;;;;;;;0.62;100.00;99612.53;6463840;22;20030;-72
2022/11/21 04:50:53;;;;;;;22.35;12.98;;;;;;;0.54;100.00;99598.09;6501774;22;20079;-72
2022/11/21 04:53:24;;;;;;;22.77;13.18;;;;;;;0.48;100.00;99608.41;6463778;22;20004;-72
2022/11/21 04:55:54;;;;;;;25.17;13.30;;;;;;;0.65;100.00;99606.50;6501948;22;20273;-72
2022/11/21 04:58:24;;;;;;;24.48;12.68;;;;;;;0.55;100.00;99615.19;6501799;22;20003;-73
2022/11/21 05:00:55;;;;;;;25.33;12.68;;;;;;;0.53;100.00;99620.34;6501752;22;20042;-72
2022/11/21 05:03:25;;;;;;;22.42;12.85;;;;;;;0.51;100.00;99618.66;6501575;22;20030;-72
2022/11/21 05:05:55;;;;;;;26.55;13.68;;;;;;;0.42;100.00;99609.31;6502138;22;20334;-72
2022/11/21 05:08:26;;;;;;;25.48;13.50;;;;;;;0.37;100.00;99611.09;6501363;22;20006;-71
2022/11/21 05:13:44;;;;;;;26.67;13.90;;;;;;;0.33;100.00;99612.00;6502153;22;20018;-73
2022/11/21 05:16:15;;;;;;;27.00;14.18;;;;;;;0.56;100.00;99617.72;6501689;22;19996;-73
2022/11/21 05:18:45;;;;;;;26.35;14.43;;;;;;;0.35;100.00;99612.84;6463955;22;20461;-73
2022/11/21 05:21:16;;;;;;;25.70;13.68;;;;;;;0.30;100.00;99609.47;6500405;22;20084;-73
2022/11/21 05:23:46;;;;;;;27.52;14.25;;;;;;;0.32;100.00;99612.88;6500263;22;20022;-72
2022/11/21 05:26:16;;;;;;;26.45;13.95;;;;;;;0.18;100.00;99613.88;6500925;22;20081;-74
2022/11/21 05:28:47;;;;;;;25.77;13.45;;;;;;;0.20;100.00;99614.72;6500845;22;20378;-73
2022/11/21 05:31:17;;;;;;;24.77;13.70;;;;;;;0.08;100.00;99618.22;6500466;22;20438;-73
2022/11/21 05:33:48;;;;;;;23.58;13.65;;;;;;;-0.12;100.00;99619.28;6501336;22;19996;-73
2022/11/21 05:36:18;;;;;;;26.77;14.48;;;;;;;-0.13;100.00;99627.88;6500691;22;20000;-73
2022/11/21 05:38:48;;;;;;;29.23;16.98;;;;;;;-0.16;100.00;99632.16;6500097;22;19999;-72
2022/11/21 05:41:18;;;;;;;30.13;16.90;;;;;;;-0.16;100.00;99621.91;6500578;22;19996;-73
2022/11/21 05:43:49;;;;;;;28.63;16.27;;;;;;;-0.28;100.00;99621.97;6501018;22;20004;-72
2022/11/21 05:46:22;;;;;;;30.92;16.55;;;;;;;-0.33;100.00;99622.03;6489698;22;20477;-72
2022/11/21 05:48:53;;;;;;;30.10;15.95;;;;;;;-0.43;100.00;99628.09;6500407;22;20046;-73
2022/11/21 05:51:24;;;;;;;31.95;16.48;;;;;;;-0.47;100.00;99626.41;6500449;22;20004;-73
2022/11/21 05:53:54;;;;;;;29.58;16.00;;;;;;;-0.48;100.00;99624.72;6500391;22;20441;-73
2022/11/21 05:56:25;;;;;;;30.67;15.23;;;;;;;-0.46;100.00;99625.56;6499668;22;19999;-73
2022/11/21 05:58:56;;;;;;;32.10;16.67;;;;;;;-0.52;100.00;99633.28;6500097;22;20083;-73
2022/11/21 06:04:15;;;;;;;29.48;15.43;;;;;;;-0.57;100.00;99636.75;6499843;22;20015;-72
2022/11/21 06:06:45;;;;;;;28.90;15.30;;;;;;;-0.75;100.00;99635.13;6499417;22;20008;-73
2022/11/21 06:09:16;;;;;;;29.98;15.75;;;;;;;-0.70;100.00;99633.38;6498413;22;20342;-73
2022/11/21 06:11:46;;;;;;;29.23;15.60;;;;;;;-0.73;100.00;99637.72;6499272;22;20004;-73
2022/11/21 06:14:16;;;;;;;26.80;16.45;;;;;;;-0.73;100.00;99637.72;6499679;22;19995;-73
2022/11/21 06:16:47;;;;;;;29.33;16.33;;;;;;;-0.76;100.00;99636.00;6499705;22;20391;-73
2022/11/21 06:19:17;;;;;;;30.85;16.55;;;;;;;-0.77;100.00;99630.88;6462051;22;20000;-72
2022/11/21 06:21:47;;;;;;;30.85;15.75;;;;;;;-0.78;100.00;99629.16;6499019;22;20419;-72
2022/11/21 06:24:17;;;;;;;31.08;15.88;;;;;;;-0.74;100.00;99633.44;6499721;22;19999;-74
2022/11/21 06:26:48;;;;;;;31.33;16.17;;;;;;;-0.85;100.00;99627.50;6500781;22;20007;-73
2022/11/21 06:29:21;;;;;;;34.05;17.25;;;;;;;-1.04;100.00;99636.16;6501359;22;20007;-74
2022/11/21 06:31:51;;;;;;;32.30;16.48;;;;;;;-1.17;100.00;99629.38;6500228;22;20427;-74
2022/11/21 06:34:21;;;;;;;36.33;15.60;;;;;;;-1.10;100.00;99634.47;6500677;22;20003;-73
2022/11/21 06:36:51;;;;;;;28.85;15.05;;;;;;;-1.25;100.00;99639.66;6462750;22;20006;-73
2022/11/21 06:39:22;;;;;;;27.85;14.85;;;;;;;-1.31;100.00;99641.38;6501016;22;20003;-73
2022/11/21 06:41:52;;;;;;;27.90;15.15;;;;;;;-1.40;100.00;99646.56;6502561;22;20079;-73
2022/11/21 06:44:22;;;;;;;30.23;16.05;;;;;;;-1.50;100.00;99649.97;6502001;22;20033;-73
2022/11/21 06:46:53;;;;;;;29.45;14.70;;;;;;;-1.48;100.00;99654.25;6501075;22;20027;-73
2022/11/21 06:49:24;;;;;;;29.98;15.60;;;;;;;-1.58;100.00;99656.84;6500800;22;20327;-74
2022/11/21 06:51:54;;;;;;;30.60;15.00;;;;;;;-1.58;100.00;99656.84;6501640;22;20006;-73
2022/11/21 06:54:24;;;;;;;29.63;16.05;;;;;;;-1.61;100.00;99651.75;6463400;22;20133;-73
2022/11/21 06:56:55;;;;;;;32.20;15.85;;;;;;;-1.64;100.00;99656.84;6501782;22;20019;-74
2022/11/21 06:59:25;;;;;;;30.30;15.85;;;;;;;-1.53;100.00;99660.25;6501071;22;19999;-73
2022/11/21 07:01:55;;;;;;;28.20;15.60;;;;;;;-1.51;100.00;99661.97;6501713;22;20006;-73
2022/11/21 07:04:25;;;;;;;32.53;16.35;;;;;;;-1.44;100.00;99666.19;6463504;22;20014;-73
2022/11/21 07:06:56;;;;;;;29.75;15.50;;;;;;;-1.39;100.00;99674.72;6501596;22;20385;-73
2022/11/21 07:09:26;;;;;;;33.00;15.18;;;;;;;-1.15;100.00;99673.78;6501762;22;20247;-74
2022/11/21 07:13:20;;;;;;;26.83;14.05;;;;;;;-1.16;100.00;99682.34;6501933;22;20464;-74
2022/11/21 07:14:46;;;;;;;22.30;12.75;;;;;;;-1.29;100.00;99689.22;6490786;22;20407;-72
2022/11/21 07:17:17;;;;;;;24.63;13.32;;;;;;;-1.41;100.00;99698.66;6501970;22;20006;-73
2022/11/21 07:19:47;;;;;;;24.80;13.02;;;;;;;-1.29;100.00;99701.16;6501602;22;20045;-73
2022/11/21 07:22:17;;;;;;;23.63;13.18;;;;;;;-1.32;100.00;99698.59;6501429;22;20000;-73
2022/11/21 07:24:48;;;;;;;23.50;12.55;;;;;;;-1.12;100.00;99699.41;6501515;22;20011;-73
2022/11/21 07:27:18;;;;;;;25.58;13.23;;;;;;;-1.02;100.00;99701.09;6498819;22;20014;-74
2022/11/21 07:29:48;;;;;;;25.45;13.30;;;;;;;-1.05;100.00;99693.41;6499410;22;20427;-73
2022/11/21 07:32:18;;;;;;;26.33;13.35;;;;;;;-1.22;100.00;99693.44;6461525;22;20012;-73
2022/11/21 07:34:49;;;;;;;26.50;13.45;;;;;;;-1.20;100.00;99698.59;6500461;22;20434;-72
2022/11/21 07:37:19;;;;;;;26.58;13.88;;;;;;;-1.26;100.00;99696.06;6463302;22;20500;-74
2022/11/21 07:39:49;;;;;;;22.98;13.20;;;;;;;-0.97;100.00;99695.09;6502237;22;20000;-73
2022/11/21 07:42:20;;;;;;;24.63;12.57;;;;;;;-1.01;100.00;99698.53;6464196;22;20000;-74
2022/11/21 07:44:50;;;;;;;28.77;14.43;;;;;;;-0.99;100.00;99693.38;6501203;22;20067;-73
2022/11/21 07:47:20;;;;;;;26.67;13.77;;;;;;;-0.84;100.00;99699.31;6501913;22;20003;-73
2022/11/21 07:49:50;;;;;;;25.27;12.98;;;;;;;-0.69;100.00;99700.94;6501673;22;19999;-73
2022/11/21 07:52:21;;;;;;;24.48;13.10;;;;;;;-0.85;100.00;99707.00;6501817;22;20004;-74
2022/11/21 07:54:51;;;;;;;23.27;12.57;;;;;;;-0.71;100.00;99702.66;6501793;22;20003;-73
2022/11/21 07:57:22;;;;;;;25.98;13.98;;;;;;;-0.42;100.00;99700.81;6501452;22;20045;-73
2022/11/21 07:59:52;;;;;;;25.92;12.93;;;;;;;-0.65;100.00;99703.50;6463704;22;20010;-74
2022/11/21 08:02:27;;;;;;;23.80;13.02;;;;;;;-0.82;100.00;99695.03;6491305;22;20034;-74
2022/11/21 08:04:57;;;;;;;23.42;13.25;;;;;;;-0.93;100.00;99695.94;6501499;22;19999;-74
2022/11/21 08:07:28;;;;;;;28.13;13.63;;;;;;;-0.90;100.00;99691.63;6502087;22;20006;-74
2022/11/21 08:09:58;;;;;;;27.75;13.65;;;;;;;-1.01;100.00;99697.66;6501291;22;19999;-73
2022/11/21 08:12:31;;;;;;;24.73;13.20;;;;;;;-0.93;100.00;99693.38;6463786;22;20004;-73
2022/11/21 08:15:03;;;;;;;25.00;13.50;;;;;;;-1.00;100.00;99689.97;6501319;22;20003;-73
2022/11/21 08:17:34;;;;;;;24.02;13.07;;;;;;;-1.07;100.00;99688.28;6501043;22;20007;-74
2022/11/21 08:20:06;;;;;;;28.85;14.45;;;;;;;-0.76;100.00;99683.88;6501235;22;20004;-73
2022/11/21 08:22:38;;;;;;;26.38;14.05;;;;;;;-0.32;100.00;99687.03;6500616;22;20007;-74
2022/11/21 08:25:09;;;;;;;26.50;13.85;;;;;;;-0.05;100.00;99686.84;6501403;22;20350;-73
2022/11/21 08:27:39;;;;;;;26.67;13.55;;;;;;;0.35;99.17;99687.34;6502150;22;20031;-73
2022/11/21 08:30:11;;;;;;;21.90;12.70;;;;;;;0.27;97.85;99684.00;6501292;22;19999;-74
2022/11/21 08:32:41;;;;;;;27.77;13.63;;;;;;;0.59;98.29;99691.41;6486854;22;20144;-76
2022/11/21 08:35:11;;;;;;;24.40;13.27;;;;;;;0.28;99.43;99690.84;6496012;22;19999;-76
2022/11/21 08:37:41;;;;;;;27.15;14.32;;;;;;;0.01;100.00;99696.19;6497210;22;20000;-76
2022/11/21 08:40:12;;;;;;;24.83;14.20;;;;;;;0.65;100.00;99697.31;6497347;22;20011;-76
2022/11/21 08:42:42;;;;;;;24.38;13.48;;;;;;;0.44;99.62;99694.09;6497422;22;20054;-76
2022/11/21 08:45:12;;;;;;;28.02;14.65;;;;;;;0.17;99.66;99704.63;6496506;22;20039;-76
2022/11/21 08:47:43;;;;;;;25.73;14.20;;;;;;;0.34;100.00;99698.47;6496868;22;20064;-76
2022/11/21 08:50:14;;;;;;;27.70;14.23;;;;;;;0.39;100.00;99708.72;6496430;22;20023;-76
2022/11/21 08:52:44;;;;;;;27.80;14.05;;;;;;;0.17;100.00;99705.47;6496994;22;19995;-76
2022/11/21 08:55:14;;;;;;;25.52;14.95;;;;;;;0.11;100.00;99702.09;6496587;22;20029;-76
2022/11/21 08:57:45;;;;;;;27.08;14.68;;;;;;;0.04;100.00;99695.34;6496818;22;20003;-77
2022/11/21 09:00:15;;;;;;;26.55;14.35;;;;;;;0.13;100.00;99698.69;6458431;22;20315;-77
2022/11/21 09:02:45;;;;;;;26.30;13.85;;;;;;;0.27;100.00;99695.97;6496727;22;20273;-76
2022/11/21 09:05:16;;;;;;;24.30;13.50;;;;;;;0.16;100.00;99695.22;6496595;22;20006;-76
2022/11/21 09:07:47;;;;;;;25.55;13.57;;;;;;;0.32;100.00;99700.22;6458758;22;20316;-76
2022/11/21 09:10:17;;;;;;;24.88;13.57;;;;;;;0.09;100.00;99707.28;6458560;22;20386;-76
2022/11/21 09:12:47;;;;;;;22.50;13.10;;;;;;;0.53;100.00;99702.59;6496540;22;20003;-76
2022/11/21 09:18:07;;;;;;;21.20;11.98;;;;;;;0.53;100.00;99705.16;6496253;22;20326;-76
2022/11/21 09:20:39;;;;;;;23.58;12.55;;;;;;;0.40;100.00;99713.84;6494972;22;20003;-76
2022/11/21 09:23:12;;;;;;;22.38;13.15;;;;;;;0.63;100.00;99716.19;6495638;22;20389;-77
2022/11/21 09:25:43;;;;;;;23.90;12.98;;;;;;;0.55;100.00;99716.25;6485770;22;20492;-76
2022/11/21 09:28:14;;;;;;;22.90;12.45;;;;;;;0.52;100.00;99713.72;6458769;22;20011;-76
2022/11/21 09:30:45;;;;;;;20.73;12.15;;;;;;;0.89;100.00;99720.19;6495303;22;20004;-77
2022/11/21 09:33:18;;;;;;;24.92;12.15;;;;;;;0.92;100.00;99709.88;6496511;22;20065;-77
2022/11/21 09:35:48;;;;;;;24.23;12.63;;;;;;;1.09;100.00;99715.69;6458124;22;20011;-76
2022/11/21 09:38:18;;;;;;;22.17;12.75;;;;;;;0.96;100.00;99714.13;6496726;22;20124;-76
2022/11/21 09:40:49;;;;;;;20.83;11.73;;;;;;;0.68;100.00;99712.72;6486431;22;20101;-76
2022/11/21 09:43:38;;;;;;;22.10;11.68;;;;;;;0.99;100.00;99713.22;6486510;22;20397;-76
2022/11/21 09:46:18;;;;;;;21.67;11.82;;;;;;;1.14;100.00;99711.34;6458377;22;20025;-76
2022/11/21 09:48:57;;;;;;;22.45;11.25;;;;;;;1.02;100.00;99716.63;6495495;22;20079;-76
2022/11/21 09:51:30;;;;;;;19.02;10.68;;;;;;;1.20;100.00;99721.56;6458750;22;20292;-76
2022/11/21 09:54:13;;;;;;;23.08;11.40;;;;;;;0.86;100.00;99721.97;6459427;22;20187;-74
2022/11/21 09:56:46;;;;;;;18.20;10.60;;;;;;;0.97;100.00;99710.69;6496010;22;20026;-76
2022/11/21 09:59:19;;;;;;;24.02;12.38;;;;;;;0.88;100.00;99718.50;6496014;22;20416;-75
2022/11/21 10:01:50;;;;;;;21.98;11.85;;;;;;;0.70;100.00;99715.28;6495964;22;20000;-76
2022/11/21 10:04:20;;;;;;;28.20;12.93;;;;;;;0.73;100.00;99718.66;6457780;22;20030;-76
2022/11/21 10:07:06;;;;;;;23.77;12.43;;;;;;;0.91;100.00;99712.47;6457438;22;20000;-76
2022/11/21 10:10:01;;;;;;;21.85;11.40;;;;;;;1.21;100.00;99705.25;6496482;22;20058;-76
2022/11/21 10:12:43;;;;;;;27.23;12.18;;;;;;;1.47;100.00;99692.91;6496182;22;20004;-77
2022/11/21 10:15:20;;;;;;;24.42;11.55;;;;;;;1.69;100.00;99698.59;6495548;22;20382;-77
2022/11/21 10:17:53;;;;;;;25.60;12.90;;;;;;;1.70;100.00;99693.44;6495230;22;20035;-77
2022/11/21 10:20:26;;;;;;;27.15;12.07;;;;;;;1.79;100.00;99693.31;6495911;22;20061;-77
2022/11/21 10:23:19;;;;;;;25.50;12.57;;;;;;;1.81;100.00;99686.41;6495233;22;20162;-76
2022/11/21 10:25:56;;;;;;;20.88;10.15;;;;;;;2.09;100.00;99683.38;6495253;22;20011;-75
2022/11/21 10:28:46;;;;;;;19.85;9.73;;;;;;;2.10;100.00;99694.53;6458208;22;20004;-77
2022/11/21 10:31:18;;;;;;;21.95;10.80;;;;;;;2.15;100.00;99685.00;6484043;22;20003;-76
2022/11/21 10:33:51;;;;;;;21.02;10.10;;;;;;;2.04;99.81;99684.31;6495111;22;20026;-76
2022/11/21 10:36:22;;;;;;;20.65;10.02;;;;;;;2.04;100.00;99679.16;6495661;22;20034;-76
2022/11/21 10:38:59;;;;;;;20.40;9.07;;;;;;;2.04;100.00;99681.75;6458500;22;20385;-76
2022/11/21 10:41:46;;;;;;;19.30;9.63;;;;;;;2.12;100.00;99673.03;6496320;22;20112;-76
2022/11/21 10:47:27;;;;;;;16.90;8.57;;;;;;;2.13;100.00;99673.88;6495151;22;20128;-76
2022/11/21 10:50:09;;;;;;;18.45;9.65;;;;;;;2.46;100.00;99675.84;6496078;22;20020;-77
2022/11/21 10:52:45;;;;;;;23.42;9.18;;;;;;;2.50;100.00;99670.63;6496643;22;20413;-77
2022/11/21 10:55:17;;;;;;;18.17;8.10;;;;;;;2.26;99.91;99662.47;6496493;22;20010;-75
2022/11/21 10:57:49;;;;;;;17.67;8.90;;;;;;;2.27;100.00;99666.75;6496408;22;20000;-76
2022/11/21 11:00:26;;;;;;;18.50;8.70;;;;;;;2.19;100.00;99664.28;6496695;22;20023;-76
2022/11/21 11:03:03;;;;;;;14.98;8.65;;;;;;;2.25;100.00;99665.94;6495889;22;20069;-76
2022/11/21 11:05:37;;;;;;;18.10;8.02;;;;;;;2.16;100.00;99660.94;6457441;22;20014;-76
2022/11/21 11:08:13;;;;;;;20.27;8.85;;;;;;;2.16;99.63;99658.38;6468615;22;19999;-76
2022/11/21 11:11:05;;;;;;;16.58;8.65;;;;;;;2.27;100.00;99657.31;6495524;22;20003;-76
2022/11/21 11:13:51;;;;;;;16.17;8.80;;;;;;;2.25;100.00;99653.91;6496089;22;20079;-76
2022/11/21 11:16:23;;;;;;;16.02;8.13;;;;;;;2.17;99.41;99652.34;6497268;22;20423;-76
2022/11/21 11:19:19;;;;;;;14.52;7.90;;;;;;;2.35;100.00;99662.31;6497150;22;20057;-76
2022/11/21 11:21:49;;;;;;;14.75;8.25;;;;;;;2.28;100.00;99640.97;6497359;22;20004;-76
2022/11/21 11:24:25;;;;;;;17.63;8.57;;;;;;;2.46;100.00;99645.78;6498015;22;20052;-76
2022/11/21 11:27:01;;;;;;;16.83;8.68;;;;;;;2.40;100.00;99638.19;6497852;22;20012;-76
2022/11/21 11:29:34;;;;;;;15.60;8.02;;;;;;;2.31;100.00;99634.91;6497832;22;20023;-75
2022/11/21 11:32:16;;;;;;;12.90;7.85;;;;;;;2.11;99.98;99636.97;6498812;22;20458;-76
2022/11/21 11:34:49;;;;;;;15.38;8.10;;;;;;;2.03;100.00;99631.09;6498749;22;19999;-76
2022/11/21 11:37:38;;;;;;;16.50;8.38;;;;;;;1.98;100.00;99638.91;6499254;22;20000;-76
2022/11/21 11:40:44;;;;;;;16.27;8.02;;;;;;;2.03;100.00;99631.09;6501396;22;20439;-76
2022/11/21 11:49:11;;;;;;;15.55;7.95;;;;;;;2.09;100.00;99610.38;6500728;22;20076;-76
2022/11/21 11:51:47;;;;;;;14.35;8.35;;;;;;;2.14;100.00;99614.56;6500274;22;20006;-78
2022/11/21 11:54:28;;;;;;;12.95;7.57;;;;;;;2.07;100.00;99617.28;6499450;22;20070;-76
2022/11/21 11:56:59;;;;;;;13.75;7.30;;;;;;;2.14;100.00;99608.59;6498479;22;19995;-76
2022/11/21 11:59:56;;;;;;;12.82;7.32;;;;;;;2.09;99.53;99607.78;6498769;22;20423;-76